createdAt,value
2022-11-29T00:07:40.732Z,38.60
2022-11-29T00:17:47.090Z,39.30
2022-11-29T00:27:53.349Z,42.50
2022-11-29T00:38:00.151Z,42.90
2022-11-29T00:48:06.444Z,42.60
2022-11-29T00:58:12.717Z,45.20
2022-11-29T01:08:19.401Z,47.70
2022-11-29T01:18:28.787Z,45.60
2022-11-29T01:28:35.917Z,41.30
2022-11-29T01:38:43.602Z,48.60
2022-11-29T01:48:50.277Z,50.00
2022-11-29T01:58:56.562Z,45.50
2022-11-29T02:09:02.968Z,43.20
2022-11-29T02:19:28.388Z,45.80
2022-11-29T02:29:52.736Z,43.10
2022-11-29T02:40:26.320Z,43.00
2022-11-29T02:51:03.000Z,44.00
2022-11-29T03:01:22.291Z,40.60
2022-11-29T03:11:45.572Z,39.20
2022-11-29T03:22:16.730Z,44.10
2022-11-29T03:32:30.151Z,45.70
2022-11-29T03:42:45.868Z,42.70
2022-11-29T03:52:58.100Z,44.00
2022-11-29T04:03:44.874Z,43.60
2022-11-29T04:14:18.242Z,48.00
2022-11-29T04:25:00.810Z,47.25
2022-11-29T04:35:24.944Z,44.20
2022-11-29T04:46:13.115Z,44.20
2022-11-29T04:56:31.535Z,42.00
2022-11-29T05:06:50.769Z,39.00
2022-11-29T05:17:24.805Z,43.10
2022-11-29T05:27:40.796Z,45.20
2022-11-29T05:37:51.399Z,42.90
2022-11-29T05:48:02.650Z,43.40
2022-11-29T05:58:43.294Z,47.20
2022-11-29T06:08:58.105Z,50.70
2022-11-29T06:19:06.772Z,47.90
2022-11-29T06:29:27.041Z,51.00
2022-11-29T06:39:33.505Z,51.10
2022-11-29T06:49:50.269Z,48.60
2022-11-29T07:00:19.888Z,52.10
2022-11-29T07:10:32.945Z,53.70
2022-11-29T07:20:52.993Z,54.30
2022-11-29T07:31:18.733Z,54.70
2022-11-29T07:41:41.881Z,53.80
2022-11-29T07:51:48.226Z,52.90
2022-11-29T08:01:54.563Z,52.90
2022-11-29T08:12:00.894Z,58.00
2022-11-29T08:22:07.171Z,49.00
2022-11-29T08:32:13.469Z,46.70
2022-11-29T08:42:19.701Z,48.30
2022-11-29T08:52:44.565Z,44.90
2022-11-29T09:02:50.820Z,44.90
2022-11-29T09:12:57.086Z,40.70
2022-11-29T09:23:03.984Z,40.40
2022-11-29T09:33:10.236Z,41.20
2022-11-29T09:43:33.030Z,42.30
2022-11-29T09:53:47.856Z,44.00
2022-11-29T10:03:55.961Z,44.40
2022-11-29T10:14:10.333Z,41.20
2022-11-29T10:24:21.405Z,41.20
2022-11-29T10:34:27.884Z,43.10
2022-11-29T10:44:34.792Z,41.70
2022-11-29T10:54:43.304Z,40.30
2022-11-29T11:04:51.279Z,41.00
2022-11-29T11:15:19.961Z,36.90
2022-11-29T11:25:35.837Z,38.50
2022-11-29T11:35:41.035Z,37.40
2022-11-29T11:45:54.088Z,36.10
2022-11-29T11:56:09.668Z,34.70
2022-11-29T12:06:19.377Z,33.40
2022-11-29T12:16:35.935Z,33.40
2022-11-29T12:26:58.932Z,33.20
2022-11-29T12:37:17.773Z,37.80
2022-11-29T12:47:36.139Z,35.00
2022-11-29T12:57:56.801Z,37.20
2022-11-29T13:08:23.896Z,34.90
2022-11-29T13:18:50.084Z,34.80
2022-11-29T13:28:56.772Z,33.30
2022-11-29T13:39:08.092Z,34.10
2022-11-29T13:49:44.283Z,39.50
2022-11-29T13:59:51.964Z,41.20
2022-11-29T14:10:00.373Z,45.70
2022-11-29T14:20:45.024Z,50.50
2022-11-29T14:30:56.289Z,50.50
2022-11-29T14:41:19.325Z,47.80
2022-11-29T14:51:27.718Z,49.70
2022-11-29T15:01:35.377Z,44.40
2022-11-29T15:11:50.690Z,41.70
2022-11-29T15:22:18.793Z,39.20
2022-11-29T15:32:34.331Z,39.20
2022-11-29T15:42:45.724Z,42.40
2022-11-29T15:52:51.999Z,38.70
2022-11-29T16:03:01.877Z,38.50
2022-11-29T16:13:34.383Z,37.50
2022-11-29T16:23:45.019Z,38.70
2022-11-29T16:33:53.124Z,36.90
2022-11-29T16:44:00.137Z,36.30
2022-11-29T16:54:27.580Z,38.90
2022-11-29T17:04:33.818Z,38.40
2022-11-29T17:14:40.131Z,39.70
2022-11-29T17:24:48.366Z,39.20
2022-11-29T17:34:55.024Z,40.00
2022-11-29T17:45:01.274Z,42.60
2022-11-29T17:55:08.088Z,42.10
2022-11-29T18:05:14.354Z,42.00
2022-11-29T18:15:20.646Z,42.40
2022-11-29T18:25:42.140Z,44.80
2022-11-29T18:35:48.392Z,43.30
2022-11-29T18:45:54.714Z,40.10
2022-11-29T18:56:06.761Z,43.80
2022-11-29T19:06:15.692Z,38.30
2022-11-29T19:16:23.232Z,38.30
2022-11-29T19:26:30.962Z,42.50
2022-11-29T19:36:44.434Z,43.00
2022-11-29T19:46:51.348Z,43.70
2022-11-29T19:56:59.764Z,38.30
2022-11-29T20:07:05.213Z,41.50
2022-11-29T20:17:11.512Z,43.60
2022-11-29T20:27:17.777Z,49.30
2022-11-29T20:37:45.614Z,42.40
2022-11-29T20:47:57.097Z,43.50
2022-11-29T20:58:03.354Z,42.80
2022-11-29T21:08:09.721Z,41.40
2022-11-29T21:18:24.899Z,41.60
2022-11-29T21:28:57.793Z,42.10
2022-11-29T21:39:06.113Z,38.50
2022-11-29T21:49:12.445Z,38.30
2022-11-29T21:59:18.690Z,37.60
2022-11-29T22:09:24.983Z,40.70
2022-11-29T22:19:37.309Z,38.30
2022-11-29T22:29:43.610Z,36.10
2022-11-29T22:39:50.506Z,33.90
2022-11-29T22:49:56.800Z,37.70
2022-11-29T23:00:03.314Z,33.90
2022-11-29T23:10:10.004Z,36.00
2022-11-29T23:20:16.219Z,35.30
2022-11-29T23:30:22.546Z,35.00
2022-11-29T23:40:28.801Z,32.60
2022-11-29T23:50:35.428Z,35.30
